Holbrook, Nebraska
Current Conditions -  °F | °C
As of 7:53 AM on Saturday 25 Oct 2014 (Local Time) from KMCK Reporting Station
Clear Clear  
Wind Chill: 39°   Ceiling: Unl
Heat Index: 39°   Visibility: 10mi
Dew Point: 34°   Wind: 3mph
Humidity: 82%   Direction: 250°WSW
Pressure: 30.1"   Gusts: NA
Location:  40.3°N, 100.01°W
Report Text: KMCK 251253Z AUTO 25003KT 10SM CLR 04/01 A3010 RMK AO2 SLP188 T00390011
Loading
Personal Weather Stations






























Interactive Weather Map
Tropical Storm Tracking
New forecast layout! Learn more

10-Day Weather Forecast

Advertisements
Track Severe Weather on mobile